Terminal Aerodrome Forecast
Issued by NWS Pittsburgh, PA

Current Version | Previous Version | Graphics & Text | Print | Product List | Glossary On
Versions: 1 2 3 4 5 6 7 8 9 10 11 12 13 14 15 16 17 18 19 20 21 22 23 24 25 26 27 28 29 30 31 32 33 34 35 36
000
FTUS41 KPBZ 141001 AAD
TAFPIT
TAF AMD
KPIT 141001Z 1410/1512 27012G22KT 2SM -SN OVC015
      TEMPO 1410/1412 1SM -SN BKN008
     FM141200 29008KT P6SM OVC015
     FM141500 33010KT P6SM BKN025
     FM150300 28005KT P6SM BKN015=

USA.gov is the U.S. government's official web portal to all federal, state and local government web resources and services.